createdAt,value
2019-06-26T00:02:21.027Z,3.75
2019-06-26T00:04:48.420Z,3.50
2019-06-26T00:07:15.743Z,3.70
2019-06-26T00:09:43.175Z,3.42
2019-06-26T00:12:10.553Z,3.45
2019-06-26T00:14:40.904Z,3.80
2019-06-26T00:17:08.185Z,3.40
2019-06-26T00:19:35.531Z,3.60
2019-06-26T00:22:02.849Z,3.37
2019-06-26T00:24:30.265Z,3.33
2019-06-26T00:26:57.585Z,3.25
2019-06-26T00:29:24.883Z,3.52
2019-06-26T00:31:52.336Z,3.50
2019-06-26T00:34:19.653Z,3.77
2019-06-26T00:36:46.975Z,3.72
2019-06-26T00:39:14.363Z,3.42
2019-06-26T00:41:41.722Z,3.40
2019-06-26T00:44:10.940Z,3.58
2019-06-26T00:46:38.323Z,3.62
2019-06-26T00:49:05.636Z,3.75
2019-06-26T00:51:32.951Z,3.40
2019-06-26T00:54:00.355Z,3.52
2019-06-26T00:56:27.749Z,3.50
2019-06-26T00:58:55.073Z,3.70
2019-06-26T01:01:22.378Z,3.50
2019-06-26T01:03:51.610Z,3.70
2019-06-26T01:06:37.078Z,3.72
2019-06-26T01:09:05.678Z,3.80
2019-06-26T01:11:32.964Z,3.67
2019-06-26T01:14:00.297Z,3.70
2019-06-26T01:16:27.625Z,3.75
2019-06-26T01:18:54.921Z,3.67
2019-06-26T01:21:22.426Z,3.65
2019-06-26T01:23:49.796Z,3.27
2019-06-26T01:26:17.183Z,3.75
2019-06-26T01:28:44.482Z,3.72
2019-06-26T01:31:11.806Z,3.70
2019-06-26T01:33:39.117Z,3.77
2019-06-26T01:36:06.442Z,3.80
2019-06-26T01:38:33.751Z,4.20
2019-06-26T01:41:01.127Z,3.80
2019-06-26T01:43:28.503Z,3.72
2019-06-26T01:45:55.855Z,3.83
2019-06-26T01:48:23.170Z,3.83
2019-06-26T01:50:50.595Z,3.90
2019-06-26T01:53:17.878Z,3.50
2019-06-26T01:55:45.199Z,3.52
2019-06-26T01:58:12.500Z,3.50
2019-06-26T02:00:39.819Z,3.20
2019-06-26T02:03:07.139Z,3.40
2019-06-26T02:05:34.540Z,3.75
2019-06-26T02:08:01.840Z,3.40
2019-06-26T02:10:29.146Z,3.33
2019-06-26T02:12:56.608Z,3.95
2019-06-26T02:15:23.906Z,3.40
2019-06-26T02:17:51.243Z,3.40
2019-06-26T02:20:18.521Z,3.70
2019-06-26T02:22:49.334Z,3.77
2019-06-26T02:25:15.442Z,3.27
2019-06-26T02:27:43.956Z,3.65
2019-06-26T02:30:11.282Z,3.65
2019-06-26T02:32:38.727Z,3.55
2019-06-26T02:35:09.855Z,3.47
2019-06-26T02:37:35.468Z,3.52
2019-06-26T02:40:03.152Z,3.45
2019-06-26T02:42:30.656Z,3.42
2019-06-26T02:44:58.080Z,3.62
2019-06-26T02:47:25.439Z,3.60
2019-06-26T02:49:52.759Z,3.60
2019-06-26T02:52:20.072Z,3.87
2019-06-26T02:54:47.368Z,3.62
2019-06-26T02:57:14.675Z,3.90
2019-06-26T02:59:42.027Z,3.55
2019-06-26T03:02:09.313Z,3.50
2019-06-26T03:04:36.633Z,3.42
2019-06-26T03:07:04.073Z,3.55
2019-06-26T03:09:31.387Z,3.37
2019-06-26T03:11:58.777Z,3.95
2019-06-26T03:14:26.085Z,3.40
2019-06-26T03:16:53.392Z,3.27
2019-06-26T03:19:20.712Z,2.87
2019-06-26T03:21:48.018Z,3.52
2019-06-26T03:24:15.340Z,3.35
2019-06-26T03:26:42.989Z,3.52
2019-06-26T03:29:10.400Z,3.50
2019-06-26T03:31:37.794Z,3.50
2019-06-26T03:34:05.120Z,3.47
2019-06-26T03:36:32.412Z,3.70
2019-06-26T03:38:59.815Z,3.25
2019-06-26T03:41:27.103Z,3.72
2019-06-26T03:43:54.467Z,3.40
2019-06-26T03:46:21.903Z,3.17
2019-06-26T03:48:49.409Z,3.52
2019-06-26T03:51:16.709Z,3.08
2019-06-26T03:53:44.017Z,3.60
2019-06-26T03:56:11.352Z,3.30
2019-06-26T03:58:40.577Z,3.30
2019-06-26T04:01:07.984Z,3.10
2019-06-26T04:03:35.292Z,3.20
2019-06-26T04:06:02.680Z,3.22
2019-06-26T04:08:30.224Z,3.15
2019-06-26T04:10:57.839Z,3.17
2019-06-26T04:13:26.923Z,3.25
2019-06-26T04:15:54.258Z,3.33
2019-06-26T04:18:21.680Z,3.10
2019-06-26T04:20:49.113Z,3.30
2019-06-26T04:23:16.435Z,3.30
2019-06-26T04:25:43.957Z,3.17
2019-06-26T04:28:11.258Z,3.02
2019-06-26T04:30:40.504Z,3.17
2019-06-26T04:33:07.830Z,3.12
2019-06-26T04:35:35.142Z,3.35
2019-06-26T04:38:02.446Z,2.83
2019-06-26T04:40:29.763Z,3.22
2019-06-26T04:42:57.079Z,3.00
2019-06-26T04:45:24.386Z,3.15
2019-06-26T04:47:51.930Z,3.33
2019-06-26T04:50:19.436Z,3.20
2019-06-26T04:52:48.607Z,3.05
2019-06-26T04:55:16.099Z,3.25
2019-06-26T04:57:43.513Z,2.85
2019-06-26T05:00:11.283Z,2.92
2019-06-26T05:02:38.616Z,2.90
2019-06-26T05:05:06.226Z,3.05
2019-06-26T05:07:33.551Z,2.77
2019-06-26T05:10:00.949Z,2.77
2019-06-26T05:12:47.746Z,2.67
2019-06-26T05:15:16.915Z,3.00
2019-06-26T05:17:44.325Z,2.55
2019-06-26T05:20:13.637Z,2.80
2019-06-26T05:22:41.060Z,3.05
2019-06-26T05:25:08.597Z,3.10
2019-06-26T05:27:36.035Z,2.92
2019-06-26T05:30:04.845Z,2.80
2019-06-26T05:32:32.156Z,2.90
2019-06-26T05:34:59.471Z,2.60
2019-06-26T05:37:26.788Z,2.60
2019-06-26T05:39:54.887Z,2.95
2019-06-26T05:42:22.462Z,2.75
2019-06-26T05:44:49.879Z,2.90
2019-06-26T05:47:17.214Z,2.52
2019-06-26T05:49:44.609Z,2.70
2019-06-26T05:52:11.931Z,2.62
2019-06-26T05:54:39.254Z,2.58
2019-06-26T05:57:06.603Z,3.00
2019-06-26T05:59:33.994Z,2.60
2019-06-26T06:02:01.319Z,2.72
2019-06-26T06:04:30.432Z,2.70
2019-06-26T06:06:57.717Z,2.70
2019-06-26T06:09:26.139Z,2.55
2019-06-26T06:11:53.560Z,2.65
2019-06-26T06:14:20.852Z,2.72
2019-06-26T06:16:48.238Z,2.58
2019-06-26T06:19:16.800Z,2.47
2019-06-26T06:21:44.138Z,2.60
2019-06-26T06:24:11.654Z,2.30
2019-06-26T06:26:38.971Z,2.60
2019-06-26T06:29:06.284Z,2.60
2019-06-26T06:31:33.616Z,2.50
2019-06-26T06:34:02.662Z,2.50
2019-06-26T06:36:30.110Z,2.62
2019-06-26T06:38:59.310Z,2.47
2019-06-26T06:41:26.662Z,2.40
2019-06-26T06:43:54.064Z,2.67
2019-06-26T06:46:22.545Z,2.35
2019-06-26T06:48:49.876Z,2.60
2019-06-26T06:51:17.212Z,2.60
2019-06-26T06:53:44.512Z,2.80
2019-06-26T06:56:11.834Z,2.77
2019-06-26T06:58:39.114Z,2.77
2019-06-26T07:01:06.478Z,2.45
2019-06-26T07:03:33.756Z,2.80
2019-06-26T07:06:01.167Z,2.35
2019-06-26T07:08:28.440Z,2.50
2019-06-26T07:10:55.814Z,2.30
2019-06-26T07:13:23.136Z,2.50
2019-06-26T07:15:50.496Z,2.65
2019-06-26T07:18:17.882Z,2.37
2019-06-26T07:20:45.203Z,2.47
2019-06-26T07:23:14.263Z,2.83
2019-06-26T07:25:41.659Z,2.20
2019-06-26T07:28:10.785Z,2.58
2019-06-26T07:30:38.306Z,2.98
2019-06-26T07:33:05.625Z,2.58
2019-06-26T07:35:33.390Z,2.50
2019-06-26T07:38:00.684Z,2.40
2019-06-26T07:40:28.088Z,2.67
2019-06-26T07:42:55.522Z,2.52
2019-06-26T07:45:24.650Z,2.60
2019-06-26T07:47:51.987Z,2.40
2019-06-26T07:50:19.590Z,2.20
2019-06-26T07:52:46.893Z,2.58
2019-06-26T07:55:14.411Z,2.37
2019-06-26T07:57:41.760Z,2.58
2019-06-26T08:00:09.138Z,2.33
2019-06-26T08:02:36.474Z,2.42
2019-06-26T08:05:04.871Z,2.70
2019-06-26T08:07:32.300Z,2.40
2019-06-26T08:09:59.704Z,2.33
2019-06-26T08:12:27.121Z,2.25
2019-06-26T08:14:54.433Z,2.45
2019-06-26T08:17:23.019Z,2.30
2019-06-26T08:19:50.361Z,2.60
2019-06-26T08:22:17.644Z,2.80
2019-06-26T08:24:46.079Z,2.58
2019-06-26T08:27:13.439Z,2.40
2019-06-26T08:29:40.725Z,2.70
2019-06-26T08:32:08.175Z,2.37
2019-06-26T08:34:35.558Z,2.50
2019-06-26T08:37:03.038Z,2.22
2019-06-26T08:39:30.465Z,2.47
2019-06-26T08:41:57.892Z,2.50
2019-06-26T08:44:25.352Z,2.65
2019-06-26T08:46:52.728Z,2.35
2019-06-26T08:49:25.317Z,2.60
2019-06-26T08:51:49.458Z,2.25
2019-06-26T08:54:16.920Z,2.40
2019-06-26T08:56:44.297Z,3.05
2019-06-26T08:59:11.616Z,2.27
2019-06-26T09:01:38.922Z,2.90
2019-06-26T09:04:08.049Z,2.85
2019-06-26T09:06:35.354Z,2.70
2019-06-26T09:09:04.523Z,2.80
2019-06-26T09:11:31.844Z,2.50
2019-06-26T09:13:59.260Z,2.60
2019-06-26T09:16:26.663Z,2.37
2019-06-26T09:18:55.232Z,2.45
2019-06-26T09:21:22.501Z,2.45
2019-06-26T09:23:49.792Z,2.47
2019-06-26T09:26:17.118Z,2.62
2019-06-26T09:28:44.442Z,2.83
2019-06-26T09:31:11.740Z,2.70
2019-06-26T09:33:39.312Z,2.70
2019-06-26T09:36:07.145Z,2.52
2019-06-26T09:38:34.598Z,2.85
2019-06-26T09:41:01.965Z,2.70
2019-06-26T09:43:29.364Z,2.95
2019-06-26T09:45:56.680Z,2.83
2019-06-26T09:48:24.128Z,2.60
2019-06-26T09:50:51.516Z,2.80
2019-06-26T09:53:18.846Z,2.60
2019-06-26T09:55:46.183Z,2.85
2019-06-26T09:58:13.826Z,2.70
2019-06-26T10:00:41.330Z,3.22
2019-06-26T10:03:08.725Z,2.77
2019-06-26T10:05:36.502Z,2.58
2019-06-26T10:08:05.060Z,2.55
2019-06-26T10:10:32.359Z,3.05
2019-06-26T10:13:00.929Z,2.95
2019-06-26T10:15:29.401Z,3.35
2019-06-26T10:17:56.763Z,2.55
2019-06-26T10:20:24.092Z,2.90
2019-06-26T10:22:51.407Z,2.77
2019-06-26T10:25:18.724Z,3.00
2019-06-26T10:27:46.023Z,2.58
2019-06-26T10:30:13.837Z,2.70
2019-06-26T10:32:41.157Z,2.77
2019-06-26T10:35:08.582Z,2.60
2019-06-26T10:37:35.907Z,2.83
2019-06-26T10:40:03.753Z,2.80
2019-06-26T10:42:31.501Z,2.75
2019-06-26T10:45:00.632Z,2.95
2019-06-26T10:47:28.048Z,2.62
2019-06-26T10:49:55.463Z,2.77
2019-06-26T10:52:22.767Z,2.62
2019-06-26T10:54:50.081Z,2.25
2019-06-26T10:57:19.179Z,2.62
2019-06-26T10:59:46.484Z,2.75
2019-06-26T11:02:16.845Z,2.37
2019-06-26T11:04:43.234Z,2.67
2019-06-26T11:07:12.579Z,2.50
2019-06-26T11:09:39.894Z,2.62
2019-06-26T11:12:07.318Z,2.90
2019-06-26T11:14:34.660Z,2.27
2019-06-26T11:17:02.121Z,2.55
2019-06-26T11:19:42.790Z,2.58
2019-06-26T11:21:59.030Z,2.30
2019-06-26T11:24:26.350Z,2.45
2019-06-26T11:26:53.809Z,2.30
2019-06-26T11:29:22.393Z,2.20
2019-06-26T11:31:49.689Z,2.33
2019-06-26T11:34:18.223Z,2.12
2019-06-26T11:36:59.447Z,1.92
2019-06-26T11:39:14.751Z,2.27
2019-06-26T11:41:42.144Z,1.95
2019-06-26T11:44:11.175Z,1.82
2019-06-26T11:46:38.473Z,2.20
2019-06-26T11:49:05.822Z,2.00
2019-06-26T11:51:34.385Z,2.20
2019-06-26T11:54:03.645Z,2.75
2019-06-26T11:56:30.944Z,2.12
2019-06-26T11:58:58.310Z,2.30
2019-06-26T12:01:26.707Z,2.52
2019-06-26T12:03:54.016Z,2.20
2019-06-26T12:06:21.516Z,2.42
2019-06-26T12:08:50.231Z,2.50
2019-06-26T12:11:17.670Z,2.62
2019-06-26T12:13:46.548Z,2.35
2019-06-26T12:16:13.997Z,2.47
2019-06-26T12:18:41.380Z,2.60
2019-06-26T12:21:08.723Z,2.72
2019-06-26T12:23:36.114Z,2.30
2019-06-26T12:26:03.443Z,2.10
2019-06-26T12:28:31.052Z,2.62
2019-06-26T12:30:58.369Z,2.20
2019-06-26T12:33:25.651Z,2.22
2019-06-26T12:36:12.445Z,1.98
2019-06-26T12:38:39.767Z,2.05
2019-06-26T12:41:08.188Z,2.37
2019-06-26T12:43:35.605Z,2.20
2019-06-26T12:46:03.114Z,2.02
2019-06-26T12:48:30.428Z,2.15
2019-06-26T12:50:57.782Z,2.12
2019-06-26T12:53:25.090Z,2.08
2019-06-26T12:55:52.424Z,2.33
2019-06-26T12:58:20.345Z,2.60
2019-06-26T13:00:47.851Z,2.12
2019-06-26T13:03:15.225Z,2.17
2019-06-26T13:05:42.513Z,2.27
2019-06-26T13:08:09.800Z,2.27
2019-06-26T13:10:49.102Z,2.00
2019-06-26T13:13:08.127Z,2.77
2019-06-26T13:15:35.515Z,2.42
2019-06-26T13:18:03.975Z,2.67
2019-06-26T13:20:31.413Z,2.22
2019-06-26T13:22:58.800Z,2.15
2019-06-26T13:25:26.200Z,2.10
2019-06-26T13:27:53.608Z,2.10
2019-06-26T13:30:28.366Z,2.50
2019-06-26T13:32:55.896Z,2.20
2019-06-26T13:35:24.319Z,2.47
2019-06-26T13:37:52.590Z,2.30
2019-06-26T13:40:19.954Z,2.22
2019-06-26T13:42:47.472Z,2.52
2019-06-26T13:45:15.100Z,2.20
2019-06-26T13:47:42.506Z,2.25
2019-06-26T13:50:09.994Z,2.27
2019-06-26T13:52:37.301Z,2.05
2019-06-26T13:55:05.247Z,2.10
2019-06-26T13:57:32.554Z,2.12
2019-06-26T13:59:59.834Z,1.98
2019-06-26T14:02:27.153Z,2.47
2019-06-26T14:04:54.472Z,2.15
2019-06-26T14:07:21.849Z,2.35
2019-06-26T14:09:49.149Z,2.17
2019-06-26T14:12:19.174Z,2.10
2019-06-26T14:14:56.897Z,2.40
2019-06-26T14:17:15.339Z,2.35
2019-06-26T14:19:42.767Z,2.22
2019-06-26T14:22:12.993Z,2.25
2019-06-26T14:24:41.242Z,2.27
2019-06-26T14:27:08.577Z,2.17
2019-06-26T14:29:35.963Z,2.17
2019-06-26T14:32:04.516Z,2.37
2019-06-26T14:34:31.845Z,2.12
2019-06-26T14:36:59.181Z,1.92
2019-06-26T14:39:26.559Z,1.95
2019-06-26T14:41:54.022Z,2.30
2019-06-26T14:44:21.515Z,2.30
2019-06-26T14:46:48.836Z,2.20
2019-06-26T14:49:16.161Z,2.05
2019-06-26T14:51:47.450Z,2.60
2019-06-26T14:54:12.881Z,2.45
2019-06-26T14:56:40.201Z,2.50
2019-06-26T14:59:07.530Z,2.00
2019-06-26T15:01:34.849Z,2.72
2019-06-26T15:04:02.238Z,2.20
2019-06-26T15:06:29.614Z,1.92
2019-06-26T15:08:56.967Z,2.62
2019-06-26T15:11:25.088Z,2.20
2019-06-26T15:13:52.405Z,2.20
2019-06-26T15:16:19.631Z,2.27
2019-06-26T15:18:47.060Z,2.12
2019-06-26T15:21:14.373Z,2.30
2019-06-26T15:23:41.665Z,2.77
2019-06-26T15:26:08.964Z,2.50
2019-06-26T15:28:36.271Z,2.40
2019-06-26T15:31:03.607Z,2.17
2019-06-26T15:33:30.947Z,2.50
2019-06-26T15:35:58.258Z,2.35
2019-06-26T15:38:25.587Z,2.40
2019-06-26T15:40:53.007Z,2.47
2019-06-26T15:43:20.471Z,2.30
2019-06-26T15:45:48.121Z,2.50
2019-06-26T15:48:15.507Z,2.30
2019-06-26T15:50:42.873Z,2.40
2019-06-26T15:53:10.210Z,2.50
2019-06-26T15:55:37.560Z,2.60
2019-06-26T15:58:05.069Z,2.30
2019-06-26T16:00:32.406Z,2.50
2019-06-26T16:02:59.848Z,2.15
2019-06-26T16:05:27.169Z,2.40
2019-06-26T16:07:54.491Z,2.62
2019-06-26T16:10:21.819Z,2.27
2019-06-26T16:12:49.147Z,2.05
2019-06-26T16:15:16.694Z,2.20
2019-06-26T16:17:52.600Z,2.27
2019-06-26T16:20:20.051Z,2.17
2019-06-26T16:22:47.407Z,2.85
2019-06-26T16:25:14.856Z,2.08
2019-06-26T16:27:42.163Z,2.70
2019-06-26T16:30:09.562Z,2.17
2019-06-26T16:32:36.864Z,2.10
2019-06-26T16:35:04.378Z,2.12
2019-06-26T16:37:31.768Z,2.12
2019-06-26T16:39:59.098Z,2.22
2019-06-26T16:42:26.484Z,2.30
2019-06-26T16:44:53.773Z,2.30
2019-06-26T16:47:21.099Z,2.15
2019-06-26T16:49:48.392Z,2.20
2019-06-26T16:52:15.660Z,2.22
2019-06-26T16:54:42.979Z,2.10
2019-06-26T16:57:10.301Z,2.65
2019-06-26T16:59:37.600Z,2.00
2019-06-26T17:02:07.147Z,2.10
2019-06-26T17:04:34.242Z,2.22
2019-06-26T17:07:01.536Z,2.70
2019-06-26T17:09:28.874Z,2.27
2019-06-26T17:11:56.277Z,2.30
2019-06-26T17:14:23.610Z,2.52
2019-06-26T17:16:52.048Z,2.20
2019-06-26T17:19:19.432Z,2.12
2019-06-26T17:21:46.752Z,2.45
2019-06-26T17:24:14.136Z,2.30
2019-06-26T17:26:41.544Z,2.58
2019-06-26T17:29:08.905Z,2.80
2019-06-26T17:31:36.389Z,2.47
2019-06-26T17:34:03.906Z,2.17
2019-06-26T17:36:31.226Z,2.42
2019-06-26T17:38:58.553Z,2.45
2019-06-26T17:41:25.868Z,2.40
2019-06-26T17:43:53.212Z,2.40
2019-06-26T17:46:20.593Z,2.47
2019-06-26T17:48:48.098Z,2.30
2019-06-26T17:51:15.524Z,2.50
2019-06-26T17:53:42.901Z,2.50
2019-06-26T17:56:10.226Z,2.17
2019-06-26T17:58:37.634Z,2.12
2019-06-26T18:01:05.085Z,2.33
2019-06-26T18:03:32.378Z,2.80
2019-06-26T18:05:59.702Z,2.27
2019-06-26T18:08:27.031Z,2.12
2019-06-26T18:10:54.431Z,2.12
2019-06-26T18:13:21.778Z,2.12
2019-06-26T18:15:49.120Z,2.30
2019-06-26T18:18:16.539Z,2.70
2019-06-26T18:20:43.868Z,2.20
2019-06-26T18:23:11.189Z,2.50
2019-06-26T18:25:38.532Z,2.30
2019-06-26T18:28:05.942Z,2.72
2019-06-26T18:30:33.414Z,2.80
2019-06-26T18:33:00.915Z,2.60
2019-06-26T18:35:28.308Z,2.58
2019-06-26T18:37:55.732Z,2.62
2019-06-26T18:40:23.197Z,2.30
2019-06-26T18:42:50.541Z,2.60
2019-06-26T18:45:18.044Z,2.62
2019-06-26T18:47:45.365Z,2.62
2019-06-26T18:50:13.034Z,2.55
2019-06-26T18:52:40.347Z,2.22
2019-06-26T18:55:07.786Z,2.75
2019-06-26T18:57:35.131Z,3.20
2019-06-26T19:00:02.972Z,2.83
2019-06-26T19:02:30.327Z,3.65
2019-06-26T19:04:57.660Z,3.70
2019-06-26T19:07:25.006Z,3.00
2019-06-26T19:09:52.342Z,3.30
2019-06-26T19:12:19.790Z,3.30
2019-06-26T19:14:47.165Z,3.30
2019-06-26T19:17:14.563Z,3.60
2019-06-26T19:19:41.917Z,4.00
2019-06-26T19:22:09.205Z,3.50
2019-06-26T19:24:36.549Z,3.52
2019-06-26T19:27:07.384Z,3.52
2019-06-26T19:29:33.211Z,4.25
2019-06-26T19:32:00.621Z,4.30
2019-06-26T19:34:27.940Z,4.60
2019-06-26T19:36:56.410Z,5.00
2019-06-26T19:39:25.457Z,4.97
2019-06-26T19:41:52.751Z,4.55
2019-06-26T19:44:20.108Z,4.25
2019-06-26T19:46:47.514Z,4.37
2019-06-26T19:49:14.879Z,4.75
2019-06-26T19:51:42.190Z,5.95
2019-06-26T19:54:22.924Z,4.97
2019-06-26T19:56:38.791Z,4.70
2019-06-26T19:59:06.125Z,4.62
2019-06-26T20:01:33.473Z,8.53
2019-06-26T20:04:00.825Z,5.67
2019-06-26T20:06:28.225Z,5.08
2019-06-26T20:08:57.567Z,4.87
2019-06-26T20:11:24.760Z,4.62
2019-06-26T20:13:52.113Z,4.30
2019-06-26T20:16:19.572Z,3.95
2019-06-26T20:18:46.959Z,4.22
2019-06-26T20:21:14.263Z,4.10
2019-06-26T20:23:44.850Z,4.03
2019-06-26T20:26:12.248Z,4.33
2019-06-26T20:28:39.586Z,4.65
2019-06-26T20:31:07.025Z,5.17
2019-06-26T20:33:34.294Z,5.10
2019-06-26T20:36:01.620Z,4.92
2019-06-26T20:38:29.056Z,5.33
2019-06-26T20:40:56.580Z,5.20
2019-06-26T20:43:24.134Z,4.92
2019-06-26T20:45:51.569Z,4.60
2019-06-26T20:48:18.967Z,4.78
2019-06-26T20:50:46.336Z,10.75
2019-06-26T20:53:14.765Z,7.30
2019-06-26T20:55:42.083Z,6.87
2019-06-26T20:58:09.412Z,5.45
2019-06-26T21:00:36.715Z,5.30
2019-06-26T21:03:04.098Z,5.40
2019-06-26T21:05:31.527Z,5.15
2019-06-26T21:07:59.077Z,5.67
2019-06-26T21:10:26.433Z,5.25
2019-06-26T21:12:53.823Z,4.83
2019-06-26T21:15:21.155Z,4.62
2019-06-26T21:17:48.510Z,5.25
2019-06-26T21:20:16.025Z,4.90
2019-06-26T21:22:43.335Z,5.33
2019-06-26T21:25:18.173Z,5.05
2019-06-26T21:27:39.987Z,4.97
2019-06-26T21:30:07.980Z,4.58
2019-06-26T21:32:35.329Z,4.53
2019-06-26T21:35:02.840Z,4.80
2019-06-26T21:37:30.169Z,4.67
2019-06-26T21:39:57.461Z,4.58
2019-06-26T21:42:24.816Z,4.87
2019-06-26T21:44:52.126Z,4.80
2019-06-26T21:47:19.471Z,4.53
2019-06-26T21:49:46.892Z,4.70
2019-06-26T21:52:14.210Z,5.10
2019-06-26T21:54:41.564Z,5.17
2019-06-26T21:57:09.479Z,5.12
2019-06-26T21:59:36.978Z,4.75
2019-06-26T22:02:04.468Z,4.50
2019-06-26T22:04:31.818Z,4.55
2019-06-26T22:06:59.234Z,4.85
2019-06-26T22:09:26.743Z,4.45
2019-06-26T22:11:54.064Z,4.70
2019-06-26T22:14:21.401Z,4.70
2019-06-26T22:16:48.838Z,4.30
2019-06-26T22:19:16.258Z,4.58
2019-06-26T22:21:43.726Z,4.83
2019-06-26T22:24:11.257Z,4.42
2019-06-26T22:26:41.125Z,4.50
2019-06-26T22:29:08.455Z,4.58
2019-06-26T22:31:35.783Z,4.47
2019-06-26T22:34:03.321Z,4.58
2019-06-26T22:36:30.732Z,4.37
2019-06-26T22:38:59.302Z,4.53
2019-06-26T22:41:26.684Z,4.97
2019-06-26T22:43:54.217Z,4.53
2019-06-26T22:46:21.540Z,4.70
2019-06-26T22:48:48.948Z,4.40
2019-06-26T22:51:16.272Z,4.75
2019-06-26T22:53:43.589Z,4.12
2019-06-26T22:56:10.883Z,5.08
2019-06-26T22:58:38.230Z,4.42
2019-06-26T23:01:05.530Z,4.17
2019-06-26T23:03:32.881Z,4.42
2019-06-26T23:06:00.342Z,4.60
2019-06-26T23:08:27.642Z,4.60
2019-06-26T23:10:54.973Z,4.55
2019-06-26T23:13:22.288Z,4.40
2019-06-26T23:15:49.874Z,4.17
2019-06-26T23:18:17.321Z,4.30
2019-06-26T23:20:44.806Z,4.80
2019-06-26T23:23:12.118Z,4.28
2019-06-26T23:25:39.529Z,4.65
2019-06-26T23:28:06.835Z,4.10
2019-06-26T23:30:35.961Z,4.30
2019-06-26T23:33:03.267Z,4.00
2019-06-26T23:35:30.577Z,3.83
2019-06-26T23:37:57.905Z,4.22
2019-06-26T23:40:25.221Z,4.12
2019-06-26T23:42:52.544Z,4.58
2019-06-26T23:45:19.842Z,4.30
2019-06-26T23:47:47.163Z,4.35
2019-06-26T23:50:14.467Z,4.12
2019-06-26T23:52:42.885Z,4.22
2019-06-26T23:55:10.388Z,4.12
2019-06-26T23:57:48.670Z,4.30
